sensor_id;sensor_type;location;lat;lon;timestamp;temperature;humidity
9776;DHT22;4927;52.472;13.108;2022-08-23T00:04:13;17.90;99.90
9776;DHT22;4927;52.472;13.108;2022-08-23T00:09:19;17.80;99.90
9776;DHT22;4927;52.472;13.108;2022-08-23T00:14:26;17.70;99.90
9776;DHT22;4927;52.472;13.108;2022-08-23T00:19:30;17.70;99.90
9776;DHT22;4927;52.472;13.108;2022-08-23T00:24:41;17.60;99.90
9776;DHT22;4927;52.472;13.108;2022-08-23T00:29:52;17.70;99.90
9776;DHT22;4927;52.472;13.108;2022-08-23T00:34:58;17.70;99.90
9776;DHT22;4927;52.472;13.108;2022-08-23T00:40:07;17.70;99.90
9776;DHT22;4927;52.472;13.108;2022-08-23T00:45:12;17.70;99.90
9776;DHT22;4927;52.472;13.108;2022-08-23T00:50:31;17.60;99.90
9776;DHT22;4927;52.472;13.108;2022-08-23T00:55:35;17.60;99.90
9776;DHT22;4927;52.472;13.108;2022-08-23T01:00:41;17.60;99.90
9776;DHT22;4927;52.472;13.108;2022-08-23T01:05:50;17.60;99.90
9776;DHT22;4927;52.472;13.108;2022-08-23T01:10:58;17.50;99.90
9776;DHT22;4927;52.472;13.108;2022-08-23T01:16:07;17.50;99.90
9776;DHT22;4927;52.472;13.108;2022-08-23T01:21:15;17.50;99.90
9776;DHT22;4927;52.472;13.108;2022-08-23T01:26:21;17.50;99.90
9776;DHT22;4927;52.472;13.108;2022-08-23T01:31:27;17.50;99.90
9776;DHT22;4927;52.472;13.108;2022-08-23T01:36:34;17.50;99.90
9776;DHT22;4927;52.472;13.108;2022-08-23T01:41:38;17.50;99.90
9776;DHT22;4927;52.472;13.108;2022-08-23T01:46:44;17.50;99.90
9776;DHT22;4927;52.472;13.108;2022-08-23T01:51:50;17.50;99.90
9776;DHT22;4927;52.472;13.108;2022-08-23T01:56:57;17.50;99.90
9776;DHT22;4927;52.472;13.108;2022-08-23T02:02:07;17.60;99.90
9776;DHT22;4927;52.472;13.108;2022-08-23T02:07:17;17.60;99.90
9776;DHT22;4927;52.472;13.108;2022-08-23T02:12:24;17.60;99.90
9776;DHT22;4927;52.472;13.108;2022-08-23T02:17:30;17.60;99.90
9776;DHT22;4927;52.472;13.108;2022-08-23T02:22:41;17.60;99.90
9776;DHT22;4927;52.472;13.108;2022-08-23T02:27:47;17.50;99.90
9776;DHT22;4927;52.472;13.108;2022-08-23T02:32:53;17.50;99.90
9776;DHT22;4927;52.472;13.108;2022-08-23T02:38:03;17.40;99.90
9776;DHT22;4927;52.472;13.108;2022-08-23T02:43:08;17.40;99.90
9776;DHT22;4927;52.472;13.108;2022-08-23T02:48:14;17.40;99.90
9776;DHT22;4927;52.472;13.108;2022-08-23T02:53:21;17.40;99.90
9776;DHT22;4927;52.472;13.108;2022-08-23T02:58:27;17.40;99.90
9776;DHT22;4927;52.472;13.108;2022-08-23T03:03:33;17.40;99.90
9776;DHT22;4927;52.472;13.108;2022-08-23T03:08:39;17.30;99.90
9776;DHT22;4927;52.472;13.108;2022-08-23T03:13:46;17.40;99.90
9776;DHT22;4927;52.472;13.108;2022-08-23T03:18:52;17.30;99.90
9776;DHT22;4927;52.472;13.108;2022-08-23T03:23:58;17.30;99.90
9776;DHT22;4927;52.472;13.108;2022-08-23T03:29:05;17.30;99.90
9776;DHT22;4927;52.472;13.108;2022-08-23T03:34:16;17.30;99.90
9776;DHT22;4927;52.472;13.108;2022-08-23T03:39:23;17.20;99.90
9776;DHT22;4927;52.472;13.108;2022-08-23T03:44:29;17.20;99.90
9776;DHT22;4927;52.472;13.108;2022-08-23T03:49:36;17.20;99.90
9776;DHT22;4927;52.472;13.108;2022-08-23T03:54:42;17.10;99.90
9776;DHT22;4927;52.472;13.108;2022-08-23T03:59:52;17.10;99.90
9776;DHT22;4927;52.472;13.108;2022-08-23T04:04:58;17.10;99.90
9776;DHT22;4927;52.472;13.108;2022-08-23T04:10:09;17.10;99.90
9776;DHT22;4927;52.472;13.108;2022-08-23T04:15:13;17.20;99.90
9776;DHT22;4927;52.472;13.108;2022-08-23T04:20:19;17.10;99.90
9776;DHT22;4927;52.472;13.108;2022-08-23T04:25:26;17.10;99.90
9776;DHT22;4927;52.472;13.108;2022-08-23T04:30:33;17.20;99.90
9776;DHT22;4927;52.472;13.108;2022-08-23T04:35:40;17.10;99.90
9776;DHT22;4927;52.472;13.108;2022-08-23T04:40:46;17.20;99.90
9776;DHT22;4927;52.472;13.108;2022-08-23T04:45:58;17.10;99.90
9776;DHT22;4927;52.472;13.108;2022-08-23T04:51:05;17.10;99.90
9776;DHT22;4927;52.472;13.108;2022-08-23T04:56:11;17.10;99.90
9776;DHT22;4927;52.472;13.108;2022-08-23T05:01:17;17.10;99.90
9776;DHT22;4927;52.472;13.108;2022-08-23T05:06:28;17.20;99.90
9776;DHT22;4927;52.472;13.108;2022-08-23T05:11:35;17.20;99.90
9776;DHT22;4927;52.472;13.108;2022-08-23T05:16:42;17.20;99.90
9776;DHT22;4927;52.472;13.108;2022-08-23T05:21:48;17.20;99.90
9776;DHT22;4927;52.472;13.108;2022-08-23T05:26:54;17.30;99.90
9776;DHT22;4927;52.472;13.108;2022-08-23T05:32:01;17.40;99.90
9776;DHT22;4927;52.472;13.108;2022-08-23T05:37:07;17.60;99.90
9776;DHT22;4927;52.472;13.108;2022-08-23T05:42:14;17.70;99.90
9776;DHT22;4927;52.472;13.108;2022-08-23T05:47:20;17.80;99.90
9776;DHT22;4927;52.472;13.108;2022-08-23T05:52:26;18.00;99.90
9776;DHT22;4927;52.472;13.108;2022-08-23T05:57:34;18.20;99.90
9776;DHT22;4927;52.472;13.108;2022-08-23T06:02:40;18.30;99.90
9776;DHT22;4927;52.472;13.108;2022-08-23T06:07:46;18.40;99.90
9776;DHT22;4927;52.472;13.108;2022-08-23T06:12:52;18.40;99.90
9776;DHT22;4927;52.472;13.108;2022-08-23T06:17:58;18.40;99.90
9776;DHT22;4927;52.472;13.108;2022-08-23T06:23:05;18.40;99.90
9776;DHT22;4927;52.472;13.108;2022-08-23T06:28:11;18.50;99.90
9776;DHT22;4927;52.472;13.108;2022-08-23T06:33:18;18.60;99.90
9776;DHT22;4927;52.472;13.108;2022-08-23T06:38:24;18.70;99.90
9776;DHT22;4927;52.472;13.108;2022-08-23T06:43:31;18.80;99.90
9776;DHT22;4927;52.472;13.108;2022-08-23T06:48:37;19.00;99.90
9776;DHT22;4927;52.472;13.108;2022-08-23T06:53:43;19.10;99.90
9776;DHT22;4927;52.472;13.108;2022-08-23T06:58:50;19.10;99.90
9776;DHT22;4927;52.472;13.108;2022-08-23T07:03:56;19.30;99.90
9776;DHT22;4927;52.472;13.108;2022-08-23T07:09:03;19.50;99.90
9776;DHT22;4927;52.472;13.108;2022-08-23T07:14:13;19.60;99.90
9776;DHT22;4927;52.472;13.108;2022-08-23T07:19:16;19.80;99.90
9776;DHT22;4927;52.472;13.108;2022-08-23T07:24:21;20.00;99.90
9776;DHT22;4927;52.472;13.108;2022-08-23T07:29:27;20.20;99.90
9776;DHT22;4927;52.472;13.108;2022-08-23T07:34:34;20.20;99.90
9776;DHT22;4927;52.472;13.108;2022-08-23T07:39:40;20.40;99.90
9776;DHT22;4927;52.472;13.108;2022-08-23T07:44:46;20.60;99.90
9776;DHT22;4927;52.472;13.108;2022-08-23T07:49:53;20.70;99.90
9776;DHT22;4927;52.472;13.108;2022-08-23T07:54:59;20.80;99.90
9776;DHT22;4927;52.472;13.108;2022-08-23T08:00:10;21.00;99.90
9776;DHT22;4927;52.472;13.108;2022-08-23T08:05:17;21.20;99.90
9776;DHT22;4927;52.472;13.108;2022-08-23T08:10:23;21.10;99.90
9776;DHT22;4927;52.472;13.108;2022-08-23T08:15:29;21.00;99.90
9776;DHT22;4927;52.472;13.108;2022-08-23T08:20:35;21.00;99.90
9776;DHT22;4927;52.472;13.108;2022-08-23T08:25:42;21.00;99.90
9776;DHT22;4927;52.472;13.108;2022-08-23T08:30:48;21.10;99.90
9776;DHT22;4927;52.472;13.108;2022-08-23T08:35:55;21.00;99.90
9776;DHT22;4927;52.472;13.108;2022-08-23T08:41:10;20.90;99.90
9776;DHT22;4927;52.472;13.108;2022-08-23T08:46:20;20.90;99.90
9776;DHT22;4927;52.472;13.108;2022-08-23T08:51:30;20.90;99.90
9776;DHT22;4927;52.472;13.108;2022-08-23T08:56:32;21.10;99.90
9776;DHT22;4927;52.472;13.108;2022-08-23T09:01:38;21.30;99.90
9776;DHT22;4927;52.472;13.108;2022-08-23T09:07:02;21.40;99.90
9776;DHT22;4927;52.472;13.108;2022-08-23T09:12:19;21.50;99.90
9776;DHT22;4927;52.472;13.108;2022-08-23T09:17:27;21.60;99.90
9776;DHT22;4927;52.472;13.108;2022-08-23T09:22:36;21.60;99.90
9776;DHT22;4927;52.472;13.108;2022-08-23T09:27:45;21.60;99.90
9776;DHT22;4927;52.472;13.108;2022-08-23T09:32:51;21.80;99.90
9776;DHT22;4927;52.472;13.108;2022-08-23T09:37:59;21.90;99.90
9776;DHT22;4927;52.472;13.108;2022-08-23T09:43:18;22.00;99.90
9776;DHT22;4927;52.472;13.108;2022-08-23T09:48:36;22.20;99.90
9776;DHT22;4927;52.472;13.108;2022-08-23T09:53:42;22.20;99.90
9776;DHT22;4927;52.472;13.108;2022-08-23T09:58:45;22.30;99.90
9776;DHT22;4927;52.472;13.108;2022-08-23T10:14:23;22.90;99.90
9776;DHT22;4927;52.472;13.108;2022-08-23T10:19:58;23.10;99.90
9776;DHT22;4927;52.472;13.108;2022-08-23T10:25:08;23.10;99.90
9776;DHT22;4927;52.472;13.108;2022-08-23T10:30:14;23.10;99.90
9776;DHT22;4927;52.472;13.108;2022-08-23T10:35:26;23.10;99.90
9776;DHT22;4927;52.472;13.108;2022-08-23T10:40:41;23.40;99.90
9776;DHT22;4927;52.472;13.108;2022-08-23T10:45:45;23.70;99.90
9776;DHT22;4927;52.472;13.108;2022-08-23T10:50:53;23.80;99.90
9776;DHT22;4927;52.472;13.108;2022-08-23T10:55:58;24.00;99.90
9776;DHT22;4927;52.472;13.108;2022-08-23T11:01:08;24.30;99.90
9776;DHT22;4927;52.472;13.108;2022-08-23T11:06:40;24.20;99.90
9776;DHT22;4927;52.472;13.108;2022-08-23T11:11:47;24.30;99.90
9776;DHT22;4927;52.472;13.108;2022-08-23T11:16:57;24.50;99.90
9776;DHT22;4927;52.472;13.108;2022-08-23T11:22:11;24.70;99.90
9776;DHT22;4927;52.472;13.108;2022-08-23T11:27:26;24.80;98.70
9776;DHT22;4927;52.472;13.108;2022-08-23T11:32:34;24.80;98.40
9776;DHT22;4927;52.472;13.108;2022-08-23T11:37:54;25.00;97.20
9776;DHT22;4927;52.472;13.108;2022-08-23T11:42:53;25.00;97.30
9776;DHT22;4927;52.472;13.108;2022-08-23T11:48:14;24.90;96.90
9776;DHT22;4927;52.472;13.108;2022-08-23T11:53:30;25.20;97.00
9776;DHT22;4927;52.472;13.108;2022-08-23T12:03:54;25.70;97.10
9776;DHT22;4927;52.472;13.108;2022-08-23T12:09:00;25.80;96.30
9776;DHT22;4927;52.472;13.108;2022-08-23T12:19:33;26.10;94.30
9776;DHT22;4927;52.472;13.108;2022-08-23T12:24:45;26.10;94.60
9776;DHT22;4927;52.472;13.108;2022-08-23T12:30:05;26.10;94.40
9776;DHT22;4927;52.472;13.108;2022-08-23T12:35:34;26.20;94.10
9776;DHT22;4927;52.472;13.108;2022-08-23T12:40:41;26.20;93.10
9776;DHT22;4927;52.472;13.108;2022-08-23T12:45:49;26.50;93.70
9776;DHT22;4927;52.472;13.108;2022-08-23T12:51:02;26.50;93.70
9776;DHT22;4927;52.472;13.108;2022-08-23T12:56:08;26.30;93.10
9776;DHT22;4927;52.472;13.108;2022-08-23T13:01:19;26.30;94.10
9776;DHT22;4927;52.472;13.108;2022-08-23T13:06:25;26.40;94.20
9776;DHT22;4927;52.472;13.108;2022-08-23T13:11:35;26.70;94.10
9776;DHT22;4927;52.472;13.108;2022-08-23T13:16:42;26.70;94.00
9776;DHT22;4927;52.472;13.108;2022-08-23T13:21:47;26.70;95.00
9776;DHT22;4927;52.472;13.108;2022-08-23T13:26:53;26.70;94.00
9776;DHT22;4927;52.472;13.108;2022-08-23T13:32:00;26.60;94.30
9776;DHT22;4927;52.472;13.108;2022-08-23T13:37:29;26.00;93.70
9776;DHT22;4927;52.472;13.108;2022-08-23T13:42:41;25.90;93.80
9776;DHT22;4927;52.472;13.108;2022-08-23T13:53:24;25.70;93.90
9776;DHT22;4927;52.472;13.108;2022-08-23T13:58:35;25.90;93.80
9776;DHT22;4927;52.472;13.108;2022-08-23T14:03:42;25.90;93.70
9776;DHT22;4927;52.472;13.108;2022-08-23T14:08:48;26.00;93.50
9776;DHT22;4927;52.472;13.108;2022-08-23T14:13:54;26.10;92.90
9776;DHT22;4927;52.472;13.108;2022-08-23T14:19:06;26.00;92.90
9776;DHT22;4927;52.472;13.108;2022-08-23T14:24:12;26.00;93.80
9776;DHT22;4927;52.472;13.108;2022-08-23T14:29:19;26.20;93.20
9776;DHT22;4927;52.472;13.108;2022-08-23T14:34:25;26.10;92.80
9776;DHT22;4927;52.472;13.108;2022-08-23T14:39:31;26.00;93.50
9776;DHT22;4927;52.472;13.108;2022-08-23T14:44:41;25.70;94.20
9776;DHT22;4927;52.472;13.108;2022-08-23T14:49:48;25.60;94.10
9776;DHT22;4927;52.472;13.108;2022-08-23T14:54:54;25.60;94.50
9776;DHT22;4927;52.472;13.108;2022-08-23T15:00:00;25.60;93.70
9776;DHT22;4927;52.472;13.108;2022-08-23T15:05:07;25.80;94.20
9776;DHT22;4927;52.472;13.108;2022-08-23T15:10:14;26.00;93.80
9776;DHT22;4927;52.472;13.108;2022-08-23T15:15:20;25.90;93.30
9776;DHT22;4927;52.472;13.108;2022-08-23T15:20:30;25.90;93.50
9776;DHT22;4927;52.472;13.108;2022-08-23T15:25:35;25.90;93.50
9776;DHT22;4927;52.472;13.108;2022-08-23T15:30:41;25.80;93.30
9776;DHT22;4927;52.472;13.108;2022-08-23T15:35:48;25.80;93.10
9776;DHT22;4927;52.472;13.108;2022-08-23T15:40:54;25.80;94.00
9776;DHT22;4927;52.472;13.108;2022-08-23T15:46:03;25.70;94.10
9776;DHT22;4927;52.472;13.108;2022-08-23T15:51:08;25.60;94.40
9776;DHT22;4927;52.472;13.108;2022-08-23T15:56:16;25.50;94.10
9776;DHT22;4927;52.472;13.108;2022-08-23T16:01:20;25.50;94.60
9776;DHT22;4927;52.472;13.108;2022-08-23T16:06:27;25.40;94.20
9776;DHT22;4927;52.472;13.108;2022-08-23T16:26:37;25.10;95.00
9776;DHT22;4927;52.472;13.108;2022-08-23T16:31:43;25.10;94.00
9776;DHT22;4927;52.472;13.108;2022-08-23T16:36:55;25.10;93.90
9776;DHT22;4927;52.472;13.108;2022-08-23T16:42:01;25.00;94.00
9776;DHT22;4927;52.472;13.108;2022-08-23T16:47:07;25.00;94.10
9776;DHT22;4927;52.472;13.108;2022-08-23T16:52:13;24.90;94.00
9776;DHT22;4927;52.472;13.108;2022-08-23T16:57:20;24.90;94.20
9776;DHT22;4927;52.472;13.108;2022-08-23T17:02:29;24.90;94.10
9776;DHT22;4927;52.472;13.108;2022-08-23T17:07:45;24.90;94.20
9776;DHT22;4927;52.472;13.108;2022-08-23T17:12:52;24.90;94.10
9776;DHT22;4927;52.472;13.108;2022-08-23T17:17:58;24.80;94.30
9776;DHT22;4927;52.472;13.108;2022-08-23T17:23:04;24.80;94.90
9776;DHT22;4927;52.472;13.108;2022-08-23T17:28:10;24.80;96.00
9776;DHT22;4927;52.472;13.108;2022-08-23T17:33:20;24.70;96.40
9776;DHT22;4927;52.472;13.108;2022-08-23T17:38:27;24.60;96.60
9776;DHT22;4927;52.472;13.108;2022-08-23T17:43:31;24.50;96.60
9776;DHT22;4927;52.472;13.108;2022-08-23T17:48:37;24.40;96.80
9776;DHT22;4927;52.472;13.108;2022-08-23T17:53:43;24.20;96.90
9776;DHT22;4927;52.472;13.108;2022-08-23T17:58:50;24.20;97.00
9776;DHT22;4927;52.472;13.108;2022-08-23T18:03:57;23.80;99.00
9776;DHT22;4927;52.472;13.108;2022-08-23T18:09:03;23.80;99.10
9776;DHT22;4927;52.472;13.108;2022-08-23T18:14:09;23.50;99.90
9776;DHT22;4927;52.472;13.108;2022-08-23T18:19:16;23.10;99.90
9776;DHT22;4927;52.472;13.108;2022-08-23T18:24:22;22.80;99.90
9776;DHT22;4927;52.472;13.108;2022-08-23T18:29:30;22.70;99.90
9776;DHT22;4927;52.472;13.108;2022-08-23T18:34:33;22.30;99.90
9776;DHT22;4927;52.472;13.108;2022-08-23T18:39:39;22.20;99.90
9776;DHT22;4927;52.472;13.108;2022-08-23T18:44:45;22.00;99.90
9776;DHT22;4927;52.472;13.108;2022-08-23T18:49:51;21.90;99.90
9776;DHT22;4927;52.472;13.108;2022-08-23T18:54:58;21.90;99.90
9776;DHT22;4927;52.472;13.108;2022-08-23T19:00:05;21.80;99.90
9776;DHT22;4927;52.472;13.108;2022-08-23T19:05:13;21.30;99.90
9776;DHT22;4927;52.472;13.108;2022-08-23T19:10:19;21.40;99.90
9776;DHT22;4927;52.472;13.108;2022-08-23T19:15:23;21.20;99.90
9776;DHT22;4927;52.472;13.108;2022-08-23T19:20:30;20.70;99.90
9776;DHT22;4927;52.472;13.108;2022-08-23T19:25:37;20.70;99.90
9776;DHT22;4927;52.472;13.108;2022-08-23T19:30:43;20.60;99.90
9776;DHT22;4927;52.472;13.108;2022-08-23T19:35:49;20.40;99.90
9776;DHT22;4927;52.472;13.108;2022-08-23T19:40:56;20.20;99.90
9776;DHT22;4927;52.472;13.108;2022-08-23T19:46:05;20.10;99.90
9776;DHT22;4927;52.472;13.108;2022-08-23T19:51:12;19.80;99.90
9776;DHT22;4927;52.472;13.108;2022-08-23T19:56:17;19.70;99.90
9776;DHT22;4927;52.472;13.108;2022-08-23T20:01:23;19.60;99.90
9776;DHT22;4927;52.472;13.108;2022-08-23T20:06:30;19.50;99.90
9776;DHT22;4927;52.472;13.108;2022-08-23T20:11:36;19.40;99.90
9776;DHT22;4927;52.472;13.108;2022-08-23T20:16:42;19.30;99.90
9776;DHT22;4927;52.472;13.108;2022-08-23T20:21:46;19.10;99.90
9776;DHT22;4927;52.472;13.108;2022-08-23T20:26:53;19.00;99.90
9776;DHT22;4927;52.472;13.108;2022-08-23T20:31:59;18.90;99.90
9776;DHT22;4927;52.472;13.108;2022-08-23T20:37:05;18.80;99.90
9776;DHT22;4927;52.472;13.108;2022-08-23T20:42:12;18.60;99.90
9776;DHT22;4927;52.472;13.108;2022-08-23T20:47:19;18.60;99.90
9776;DHT22;4927;52.472;13.108;2022-08-23T20:52:25;18.50;99.90
9776;DHT22;4927;52.472;13.108;2022-08-23T20:57:32;18.40;99.90
9776;DHT22;4927;52.472;13.108;2022-08-23T21:02:38;18.30;99.90
9776;DHT22;4927;52.472;13.108;2022-08-23T21:07:44;18.20;99.90
9776;DHT22;4927;52.472;13.108;2022-08-23T21:12:51;18.10;99.90
9776;DHT22;4927;52.472;13.108;2022-08-23T21:17:55;18.00;99.90
9776;DHT22;4927;52.472;13.108;2022-08-23T21:23:01;17.90;99.90
9776;DHT22;4927;52.472;13.108;2022-08-23T21:28:08;17.80;99.90
9776;DHT22;4927;52.472;13.108;2022-08-23T21:33:14;17.70;99.90
9776;DHT22;4927;52.472;13.108;2022-08-23T21:38:20;17.60;99.90
9776;DHT22;4927;52.472;13.108;2022-08-23T21:43:27;17.50;99.90
9776;DHT22;4927;52.472;13.108;2022-08-23T21:48:30;17.40;99.90
9776;DHT22;4927;52.472;13.108;2022-08-23T21:53:37;17.40;99.90
9776;DHT22;4927;52.472;13.108;2022-08-23T21:58:44;17.30;99.90
9776;DHT22;4927;52.472;13.108;2022-08-23T22:03:49;17.20;99.90
9776;DHT22;4927;52.472;13.108;2022-08-23T22:08:56;17.10;99.90
9776;DHT22;4927;52.472;13.108;2022-08-23T22:14:02;17.00;99.90
9776;DHT22;4927;52.472;13.108;2022-08-23T22:19:09;17.00;99.90
9776;DHT22;4927;52.472;13.108;2022-08-23T22:24:15;16.90;99.90
9776;DHT22;4927;52.472;13.108;2022-08-23T22:29:21;16.90;99.90
9776;DHT22;4927;52.472;13.108;2022-08-23T22:34:27;16.80;99.90
9776;DHT22;4927;52.472;13.108;2022-08-23T22:39:33;16.70;99.90
9776;DHT22;4927;52.472;13.108;2022-08-23T22:44:40;16.70;99.90
9776;DHT22;4927;52.472;13.108;2022-08-23T22:49:47;16.60;99.90
9776;DHT22;4927;52.472;13.108;2022-08-23T22:54:53;16.60;99.90
9776;DHT22;4927;52.472;13.108;2022-08-23T23:00:00;16.50;99.90
9776;DHT22;4927;52.472;13.108;2022-08-23T23:05:06;16.50;99.90
9776;DHT22;4927;52.472;13.108;2022-08-23T23:10:12;16.40;99.90
9776;DHT22;4927;52.472;13.108;2022-08-23T23:15:19;16.40;99.90
9776;DHT22;4927;52.472;13.108;2022-08-23T23:20:26;16.40;99.90
9776;DHT22;4927;52.472;13.108;2022-08-23T23:25:38;16.30;99.90
9776;DHT22;4927;52.472;13.108;2022-08-23T23:30:45;16.30;99.90
9776;DHT22;4927;52.472;13.108;2022-08-23T23:35:51;16.20;99.90
9776;DHT22;4927;52.472;13.108;2022-08-23T23:40:57;16.20;99.90
9776;DHT22;4927;52.472;13.108;2022-08-23T23:46:05;16.10;99.90
9776;DHT22;4927;52.472;13.108;2022-08-23T23:51:12;16.10;99.90
9776;DHT22;4927;52.472;13.108;2022-08-23T23:56:16;16.00;99.90
